Time;durP1;ratioP1;P1;durP2;ratioP2;P2;SDS_P1;SDS_P2;PMS_P1;PMS_P2;Temp;Humidity;BMP_temperature;BMP_pressure;BME280_temperature;BME280_humidity;BME280_pressure;Samples;Min_cycle;Max_cycle;Signal;HPM_P1;HPM_P2
2024/01/08 00:00:21;;;;;;;;;;;17.60;64.70;;;;;;5040019;28;1070;-68
2024/01/08 00:02:46;;;;;;;;;;;17.60;64.70;;;;;;5038809;28;1264;-68
2024/01/08 00:05:12;;;;;;;;;;;17.60;64.80;;;;;;5038412;28;1292;-67
2024/01/08 00:07:38;;;;;;;;;;;17.60;64.80;;;;;;5040434;28;1295;-68
2024/01/08 00:10:04;;;;;;;;;;;17.60;64.80;;;;;;5040800;28;1401;-67
2024/01/08 00:12:29;;;;;;;;;;;17.60;64.80;;;;;;5042014;28;1906;-67
2024/01/08 00:14:55;;;;;;;;;;;17.60;64.80;;;;;;5047214;28;1449;-66
2024/01/08 00:17:20;;;;;;;;;;;17.60;64.80;;;;;;5042858;28;1340;-66
2024/01/08 00:19:46;;;;;;;;;;;17.60;64.70;;;;;;5041752;28;1541;-66
2024/01/08 00:22:11;;;;;;;;;;;17.60;64.80;;;;;;5041711;28;1475;-67
2024/01/08 00:24:37;;;;;;;;;;;17.60;64.70;;;;;;5040657;28;1725;-68
2024/01/08 00:27:03;;;;;;;;;;;17.60;64.80;;;;;;5040507;28;1387;-68
2024/01/08 00:29:28;;;;;;;;;;;17.60;64.80;;;;;;5039544;28;1452;-67
2024/01/08 00:31:54;;;;;;;;;;;17.50;64.70;;;;;;5040285;28;1914;-68
2024/01/08 00:34:20;;;;;;;;;;;17.60;64.80;;;;;;5040954;28;1654;-68
2024/01/08 00:36:46;;;;;;;;;;;17.50;64.70;;;;;;5041440;28;1342;-68
2024/01/08 00:39:11;;;;;;;;;;;17.60;64.80;;;;;;5039467;28;1664;-67
2024/01/08 00:41:37;;;;;;;;;;;17.50;64.70;;;;;;5043444;28;1309;-66
2024/01/08 00:44:03;;;;;;;;;;;17.50;64.70;;;;;;5040422;28;1296;-65
2024/01/08 00:46:28;;;;;;;;;;;17.50;64.80;;;;;;5040512;28;1396;-66
2024/01/08 00:48:54;;;;;;;;;;;17.50;64.80;;;;;;5037573;28;1313;-66
2024/01/08 00:51:19;;;;;;;;;;;17.50;64.80;;;;;;5036706;28;1768;-66
2024/01/08 00:53:45;;;;;;;;;;;17.50;64.70;;;;;;5036000;28;1967;-66
2024/01/08 00:56:10;;;;;;;;;;;17.50;64.80;;;;;;5036195;28;1481;-66
2024/01/08 00:58:41;;;;;;;;;;;17.50;64.70;;;;;;5040190;28;1338;-67
2024/01/08 01:01:07;;;;;;;;;;;17.50;64.70;;;;;;5038296;28;1527;-64
2024/01/08 01:03:33;;;;;;;;;;;17.50;64.80;;;;;;5070473;28;1584;-66
2024/01/08 01:05:58;;;;;;;;;;;17.50;64.80;;;;;;5039702;28;1433;-70
2024/01/08 01:08:24;;;;;;;;;;;17.50;64.80;;;;;;5042412;28;955;-66
2024/01/08 01:10:49;;;;;;;;;;;17.50;64.80;;;;;;5054045;28;1296;-65
2024/01/08 01:13:15;;;;;;;;;;;17.50;64.80;;;;;;5036550;28;1906;-68
2024/01/08 01:15:41;;;;;;;;;;;17.50;64.80;;;;;;5046463;28;1438;-68
2024/01/08 01:18:06;;;;;;;;;;;17.50;64.80;;;;;;5036989;28;1318;-67
2024/01/08 01:20:32;;;;;;;;;;;17.50;64.80;;;;;;5040436;28;1296;-66
2024/01/08 01:22:57;;;;;;;;;;;17.50;65.50;;;;;;5039256;28;1452;-66
2024/01/08 01:25:23;;;;;;;;;;;17.50;64.80;;;;;;5037575;28;1150;-67
2024/01/08 01:27:49;;;;;;;;;;;17.50;64.80;;;;;;5040391;28;1508;-67
2024/01/08 01:30:14;;;;;;;;;;;17.50;64.80;;;;;;5038812;28;1318;-66
2024/01/08 01:32:40;;;;;;;;;;;17.50;64.80;;;;;;5038994;28;1906;-67
2024/01/08 01:35:06;;;;;;;;;;;17.50;64.80;;;;;;5037968;28;1607;-67
2024/01/08 01:37:31;;;;;;;;;;;17.50;64.80;;;;;;5041892;28;1525;-66
2024/01/08 01:39:57;;;;;;;;;;;17.50;64.80;;;;;;5040682;28;1433;-67
2024/01/08 01:42:22;;;;;;;;;;;17.50;64.80;;;;;;5037579;28;1448;-68
2024/01/08 01:44:48;;;;;;;;;;;17.50;64.80;;;;;;5038260;28;1268;-68
2024/01/08 01:47:13;;;;;;;;;;;17.50;64.80;;;;;;5038911;28;1427;-68
2024/01/08 01:49:39;;;;;;;;;;;17.50;64.80;;;;;;5040757;28;1259;-67
2024/01/08 01:52:05;;;;;;;;;;;17.50;64.80;;;;;;5036800;28;1894;-67
2024/01/08 01:54:30;;;;;;;;;;;17.50;64.80;;;;;;5035765;28;1499;-68
2024/01/08 01:56:57;;;;;;;;;;;17.50;64.80;;;;;;5040559;28;1412;-67
2024/01/08 01:59:22;;;;;;;;;;;17.50;64.80;;;;;;5039673;28;1265;-67
2024/01/08 02:01:48;;;;;;;;;;;17.50;64.90;;;;;;5035505;28;1450;-69
2024/01/08 02:04:13;;;;;;;;;;;17.50;64.90;;;;;;5038237;28;1375;-69
2024/01/08 02:06:39;;;;;;;;;;;17.50;64.90;;;;;;5037123;28;1333;-65
2024/01/08 02:09:05;;;;;;;;;;;17.50;64.90;;;;;;5037647;28;1476;-67
2024/01/08 02:11:30;;;;;;;;;;;17.50;64.90;;;;;;5036621;28;1263;-68
2024/01/08 02:13:55;;;;;;;;;;;17.50;64.90;;;;;;5042307;28;1303;-68
2024/01/08 02:16:21;;;;;;;;;;;17.40;64.90;;;;;;5038676;28;1628;-68
2024/01/08 02:18:46;;;;;;;;;;;17.50;64.90;;;;;;5040060;28;1476;-67
2024/01/08 02:21:12;;;;;;;;;;;17.40;64.80;;;;;;5029254;28;1470;-65
2024/01/08 02:23:37;;;;;;;;;;;17.40;64.80;;;;;;5036360;28;1480;-65
2024/01/08 02:26:03;;;;;;;;;;;17.40;64.80;;;;;;5037072;28;1410;-65
2024/01/08 02:28:28;;;;;;;;;;;17.40;64.80;;;;;;5035924;28;1445;-69
2024/01/08 02:30:55;;;;;;;;;;;17.40;64.90;;;;;;5035996;28;1245;-66
2024/01/08 02:33:20;;;;;;;;;;;17.40;64.90;;;;;;5047539;28;1970;-70
2024/01/08 02:35:46;;;;;;;;;;;17.40;64.90;;;;;;5038710;28;1600;-67
2024/01/08 02:38:11;;;;;;;;;;;17.50;64.90;;;;;;5040621;28;1433;-67
2024/01/08 02:40:37;;;;;;;;;;;17.40;64.90;;;;;;5073902;28;1287;-67
2024/01/08 02:43:02;;;;;;;;;;;17.40;64.90;;;;;;5044387;28;1316;-66
2024/01/08 02:45:28;;;;;;;;;;;17.50;64.90;;;;;;5041509;28;1214;-66
2024/01/08 02:47:53;;;;;;;;;;;17.40;64.90;;;;;;5044711;28;1490;-65
2024/01/08 02:50:19;;;;;;;;;;;17.40;64.90;;;;;;5045106;28;1424;-64
2024/01/08 02:52:44;;;;;;;;;;;17.40;64.90;;;;;;5042423;28;1898;-65
2024/01/08 02:55:10;;;;;;;;;;;17.40;64.90;;;;;;5074959;28;1155;-65
2024/01/08 02:57:35;;;;;;;;;;;17.40;64.80;;;;;;5041827;28;1129;-68
2024/01/08 03:00:04;;;;;;;;;;;17.40;64.90;;;;;;5048808;28;1149;-68
2024/01/08 03:02:29;;;;;;;;;;;17.40;64.90;;;;;;5043624;28;1318;-68
2024/01/08 03:04:55;;;;;;;;;;;17.40;64.90;;;;;;5039263;28;1640;-68
2024/01/08 03:07:20;;;;;;;;;;;17.40;64.90;;;;;;5041404;28;1635;-68
2024/01/08 03:09:46;;;;;;;;;;;17.40;64.90;;;;;;5038013;28;1300;-67
2024/01/08 03:12:12;;;;;;;;;;;17.40;64.90;;;;;;5048016;28;1973;-68
2024/01/08 03:14:38;;;;;;;;;;;17.40;64.90;;;;;;5040771;28;1464;-68
2024/01/08 03:17:03;;;;;;;;;;;17.40;64.90;;;;;;5041869;28;1455;-68
2024/01/08 03:19:29;;;;;;;;;;;17.40;64.90;;;;;;5040235;28;1354;-68
2024/01/08 03:21:54;;;;;;;;;;;17.40;64.90;;;;;;5040073;28;1520;-66
2024/01/08 03:24:20;;;;;;;;;;;17.40;64.90;;;;;;5041162;28;1750;-66
2024/01/08 03:26:45;;;;;;;;;;;17.40;64.90;;;;;;5038710;28;1141;-69
2024/01/08 03:29:11;;;;;;;;;;;17.40;64.90;;;;;;5041777;28;1607;-69
2024/01/08 03:31:42;;;;;;;;;;;17.40;64.90;;;;;;5043265;28;1871;-69
2024/01/08 03:34:08;;;;;;;;;;;17.40;64.90;;;;;;5072939;28;1498;-68
2024/01/08 03:36:33;;;;;;;;;;;17.40;64.90;;;;;;5048849;28;1295;-67
2024/01/08 03:38:59;;;;;;;;;;;17.40;64.90;;;;;;5040703;28;1531;-68
2024/01/08 03:41:25;;;;;;;;;;;17.40;64.90;;;;;;5038723;28;1533;-67
2024/01/08 03:43:50;;;;;;;;;;;17.40;64.90;;;;;;5042360;28;1381;-67
2024/01/08 03:46:16;;;;;;;;;;;17.40;64.90;;;;;;5042835;28;1598;-68
2024/01/08 03:48:41;;;;;;;;;;;17.40;64.90;;;;;;5041828;28;1254;-67
2024/01/08 03:51:07;;;;;;;;;;;17.40;64.90;;;;;;5040222;28;1417;-67
2024/01/08 03:53:32;;;;;;;;;;;17.40;64.90;;;;;;5038766;28;1965;-67
2024/01/08 03:55:58;;;;;;;;;;;17.40;64.90;;;;;;5048061;28;1345;-67
2024/01/08 03:58:24;;;;;;;;;;;17.40;64.90;;;;;;5037015;28;1549;-67
2024/01/08 04:00:50;;;;;;;;;;;17.40;64.90;;;;;;5039732;28;1617;-67
2024/01/08 04:03:15;;;;;;;;;;;17.40;64.90;;;;;;5041354;28;1601;-67
2024/01/08 04:05:41;;;;;;;;;;;17.40;64.90;;;;;;5040797;28;1680;-66
2024/01/08 04:08:06;;;;;;;;;;;17.40;64.90;;;;;;5060834;28;1487;-67
2024/01/08 04:10:32;;;;;;;;;;;17.40;64.90;;;;;;5040315;28;1244;-66
2024/01/08 04:12:57;;;;;;;;;;;17.40;64.90;;;;;;5041074;28;1902;-67
2024/01/08 04:15:22;;;;;;;;;;;17.30;64.80;;;;;;5039105;28;1442;-67
2024/01/08 04:17:48;;;;;;;;;;;17.30;64.90;;;;;;5033819;28;1114;-67
2024/01/08 04:20:14;;;;;;;;;;;17.40;64.90;;;;;;5034621;28;1712;-67
2024/01/08 04:22:43;;;;;;;;;;;17.30;64.90;;;;;;5037620;28;1487;-66
2024/01/08 04:25:09;;;;;;;;;;;17.40;64.90;;;;;;5037426;28;1659;-66
2024/01/08 04:27:34;;;;;;;;;;;17.40;65.00;;;;;;5041467;28;1517;-66
2024/01/08 04:30:00;;;;;;;;;;;17.30;64.90;;;;;;5040919;28;1526;-66
2024/01/08 04:32:25;;;;;;;;;;;17.30;64.90;;;;;;5036771;28;1922;-66
2024/01/08 04:34:51;;;;;;;;;;;17.30;64.90;;;;;;5039315;28;1239;-66
2024/01/08 04:37:16;;;;;;;;;;;17.30;64.90;;;;;;5039894;28;1014;-68
2024/01/08 04:39:42;;;;;;;;;;;17.30;64.90;;;;;;5041178;28;1213;-68
2024/01/08 04:42:07;;;;;;;;;;;17.30;64.90;;;;;;5041880;28;1355;-68
2024/01/08 04:44:33;;;;;;;;;;;17.30;64.90;;;;;;5035443;28;1728;-67
2024/01/08 04:46:58;;;;;;;;;;;17.30;64.90;;;;;;5039473;28;1454;-68
2024/01/08 04:49:24;;;;;;;;;;;17.30;64.90;;;;;;5040103;28;1466;-67
2024/01/08 04:51:50;;;;;;;;;;;17.30;64.90;;;;;;5041362;28;1971;-67
2024/01/08 04:54:16;;;;;;;;;;;17.30;64.80;;;;;;5039669;28;1350;-67
2024/01/08 04:56:41;;;;;;;;;;;17.30;64.90;;;;;;5036927;28;1432;-67
2024/01/08 04:59:06;;;;;;;;;;;17.30;64.90;;;;;;5021905;28;1569;-67
2024/01/08 05:01:35;;;;;;;;;;;17.30;64.90;;;;;;5038462;28;1708;-67
2024/01/08 05:04:01;;;;;;;;;;;17.30;64.90;;;;;;5038698;28;1308;-67
2024/01/08 05:06:26;;;;;;;;;;;17.30;64.90;;;;;;5040602;28;1519;-67
2024/01/08 05:08:52;;;;;;;;;;;17.30;64.90;;;;;;5041044;28;1490;-67
2024/01/08 05:11:17;;;;;;;;;;;17.30;64.90;;;;;;5035356;28;1295;-67
2024/01/08 05:13:43;;;;;;;;;;;17.30;64.90;;;;;;5037671;28;1944;-66
2024/01/08 05:16:08;;;;;;;;;;;17.30;64.90;;;;;;5037290;28;1336;-66
2024/01/08 05:18:34;;;;;;;;;;;17.30;64.90;;;;;;5043332;28;1293;-66
2024/01/08 05:20:59;;;;;;;;;;;17.30;64.90;;;;;;5034394;28;1531;-66
2024/01/08 05:23:25;;;;;;;;;;;17.30;64.90;;;;;;5040126;28;1355;-67
2024/01/08 05:25:50;;;;;;;;;;;17.30;64.80;;;;;;5038624;28;1232;-66
2024/01/08 05:28:16;;;;;;;;;;;17.30;64.80;;;;;;5040018;28;1504;-67
2024/01/08 05:30:41;;;;;;;;;;;17.30;64.70;;;;;;5035418;28;1422;-67
2024/01/08 05:33:07;;;;;;;;;;;17.40;64.70;;;;;;5036630;28;1965;-66
2024/01/08 05:35:34;;;;;;;;;;;17.40;64.60;;;;;;5036057;28;1296;-67
2024/01/08 05:38:00;;;;;;;;;;;17.40;64.40;;;;;;5037204;28;1249;-67
2024/01/08 05:40:25;;;;;;;;;;;17.50;64.40;;;;;;5037381;28;1201;-67
2024/01/08 05:42:51;;;;;;;;;;;17.50;64.20;;;;;;5036282;28;1228;-68
2024/01/08 05:45:16;;;;;;;;;;;17.60;64.10;;;;;;5037992;28;1568;-69
2024/01/08 05:47:43;;;;;;;;;;;17.60;64.00;;;;;;5038952;28;1376;-66
2024/01/08 05:50:09;;;;;;;;;;;17.60;63.80;;;;;;5037940;28;1246;-69
2024/01/08 05:52:34;;;;;;;;;;;17.60;63.60;;;;;;5038677;28;1902;-68
2024/01/08 05:55:10;;;;;;;;;;;17.70;63.60;;;;;;5042821;28;1707;-62
2024/01/08 05:57:45;;;;;;;;;;;17.70;63.50;;;;;;5094470;28;1780;-63
2024/01/08 06:00:10;;;;;;;;;;;17.70;63.30;;;;;;5037589;28;1957;-68
2024/01/08 06:02:36;;;;;;;;;;;17.80;63.30;;;;;;5036756;28;1356;-69
2024/01/08 06:05:01;;;;;;;;;;;17.80;63.20;;;;;;5034609;28;1199;-68
2024/01/08 06:07:27;;;;;;;;;;;17.80;63.10;;;;;;5037576;28;1538;-68
2024/01/08 06:09:52;;;;;;;;;;;17.80;63.10;;;;;;5038690;28;1323;-65
2024/01/08 06:12:18;;;;;;;;;;;17.90;63.10;;;;;;5076101;28;1898;-66
2024/01/08 06:14:43;;;;;;;;;;;17.90;63.00;;;;;;5046718;28;1451;-66
2024/01/08 06:17:09;;;;;;;;;;;17.80;62.90;;;;;;5042633;28;1346;-65
2024/01/08 06:19:35;;;;;;;;;;;17.90;62.90;;;;;;5043925;28;1268;-67
2024/01/08 06:22:00;;;;;;;;;;;17.90;62.80;;;;;;5074250;28;1254;-64
2024/01/08 06:24:26;;;;;;;;;;;17.90;62.80;;;;;;5040813;28;1891;-69
2024/01/08 06:26:51;;;;;;;;;;;17.90;62.80;;;;;;5041436;28;1275;-68
2024/01/08 06:29:17;;;;;;;;;;;17.90;62.70;;;;;;5039798;28;1370;-67
2024/01/08 06:31:42;;;;;;;;;;;17.90;62.70;;;;;;5047048;28;1894;-67
2024/01/08 06:34:08;;;;;;;;;;;17.90;62.60;;;;;;5039048;28;1498;-67
2024/01/08 06:36:34;;;;;;;;;;;17.90;62.60;;;;;;5043828;28;1604;-66
2024/01/08 06:39:00;;;;;;;;;;;17.90;62.60;;;;;;5043777;28;1267;-67
2024/01/08 06:41:25;;;;;;;;;;;18.00;62.60;;;;;;5038764;28;1783;-65
2024/01/08 06:43:52;;;;;;;;;;;18.00;62.50;;;;;;5041424;28;1538;-65
2024/01/08 06:46:17;;;;;;;;;;;18.00;62.50;;;;;;5048022;28;1169;-64
2024/01/08 06:48:43;;;;;;;;;;;18.00;62.50;;;;;;5041925;28;1352;-65
2024/01/08 06:51:08;;;;;;;;;;;18.00;62.50;;;;;;5042420;28;1843;-65
2024/01/08 06:53:34;;;;;;;;;;;18.00;62.40;;;;;;5041026;28;1971;-65
2024/01/08 06:55:59;;;;;;;;;;;18.00;62.40;;;;;;5040329;28;1179;-65
2024/01/08 06:58:25;;;;;;;;;;;18.00;62.40;;;;;;5039402;28;1749;-66
2024/01/08 07:00:50;;;;;;;;;;;18.00;62.40;;;;;;5036217;28;1725;-67
2024/01/08 07:03:17;;;;;;;;;;;18.00;62.40;;;;;;5043159;28;1591;-67
2024/01/08 07:05:43;;;;;;;;;;;18.00;62.40;;;;;;5041361;28;1336;-66
2024/01/08 07:08:09;;;;;;;;;;;18.00;62.40;;;;;;5042728;28;1445;-67
2024/01/08 07:10:34;;;;;;;;;;;18.00;62.30;;;;;;5058375;28;1613;-67
2024/01/08 07:13:00;;;;;;;;;;;18.00;62.30;;;;;;5056909;28;2309;-66
2024/01/08 07:15:35;;;;;;;;;;;18.00;62.40;;;;;;5038657;28;1709;-66
2024/01/08 07:18:01;;;;;;;;;;;18.00;62.40;;;;;;5036449;28;1626;-67
2024/01/08 07:20:26;;;;;;;;;;;18.00;62.30;;;;;;5041582;28;2252;-67
2024/01/08 07:22:52;;;;;;;;;;;18.00;62.40;;;;;;5038910;28;1680;-67
2024/01/08 07:25:17;;;;;;;;;;;18.00;62.40;;;;;;5038661;28;1244;-67
2024/01/08 07:27:43;;;;;;;;;;;18.00;62.40;;;;;;5042065;28;1560;-67
2024/01/08 07:30:09;;;;;;;;;;;18.00;62.40;;;;;;5038197;28;1550;-67
2024/01/08 07:32:35;;;;;;;;;;;18.00;62.40;;;;;;5039127;28;1913;-66
2024/01/08 07:35:02;;;;;;;;;;;18.00;62.40;;;;;;5040203;28;1491;-65
2024/01/08 07:37:27;;;;;;;;;;;18.00;62.40;;;;;;5037270;28;1341;-67
2024/01/08 07:39:53;;;;;;;;;;;18.00;62.50;;;;;;5040875;28;1561;-65
2024/01/08 07:42:18;;;;;;;;;;;18.00;62.50;;;;;;5040918;28;1626;-66
2024/01/08 07:44:43;;;;;;;;;;;18.00;62.50;;;;;;5038122;28;1463;-66
2024/01/08 07:47:09;;;;;;;;;;;18.00;62.50;;;;;;5037382;28;1449;-67
2024/01/08 07:49:34;;;;;;;;;;;17.90;62.50;;;;;;5021481;28;4669;-65
2024/01/08 07:52:00;;;;;;;;;;;17.90;62.50;;;;;;5035768;28;4121;-65
2024/01/08 07:54:26;;;;;;;;;;;18.00;62.60;;;;;;5039762;28;1676;-65
2024/01/08 07:56:51;;;;;;;;;;;17.90;62.60;;;;;;5039919;28;1515;-65
2024/01/08 07:59:17;;;;;;;;;;;17.90;62.60;;;;;;5040293;28;1321;-65
2024/01/08 08:01:42;;;;;;;;;;;17.90;62.60;;;;;;5002892;28;1092900;-65
2024/01/08 08:04:08;;;;;;;;;;;17.90;62.70;;;;;;5042433;28;1686;-65
2024/01/08 08:06:33;;;;;;;;;;;17.90;62.70;;;;;;5041020;28;1270;-67
2024/01/08 08:08:59;;;;;;;;;;;17.90;62.70;;;;;;5040970;28;1499;-66
2024/01/08 08:11:27;;;;;;;;;;;17.90;62.70;;;;;;5040148;28;1363;-65
2024/01/08 08:13:52;;;;;;;;;;;17.90;62.70;;;;;;5040826;28;1914;-65
2024/01/08 08:16:18;;;;;;;;;;;17.90;62.70;;;;;;5041766;28;1489;-65
2024/01/08 08:18:44;;;;;;;;;;;17.90;62.80;;;;;;5040382;28;1222;-65
2024/01/08 08:21:09;;;;;;;;;;;17.80;62.70;;;;;;5072490;28;1316;-66
2024/01/08 08:23:35;;;;;;;;;;;17.80;62.70;;;;;;5037459;28;1384;-67
2024/01/08 08:26:00;;;;;;;;;;;17.90;62.80;;;;;;5038922;28;1378;-66
2024/01/08 08:28:26;;;;;;;;;;;17.90;62.90;;;;;;5055288;28;1453;-66
2024/01/08 08:30:52;;;;;;;;;;;17.80;62.80;;;;;;5043014;28;1329;-66
2024/01/08 08:33:17;;;;;;;;;;;17.80;62.90;;;;;;5039757;28;1910;-67
2024/01/08 08:35:43;;;;;;;;;;;17.90;62.90;;;;;;5038181;28;1324;-67
2024/01/08 08:38:09;;;;;;;;;;;17.80;62.90;;;;;;5039734;28;1397;-67
2024/01/08 08:40:34;;;;;;;;;;;17.80;62.90;;;;;;5038594;28;1669;-67
2024/01/08 08:42:59;;;;;;;;;;;17.80;62.90;;;;;;5068448;28;4350;-68
2024/01/08 08:45:25;;;;;;;;;;;17.80;62.90;;;;;;5071907;28;989;-66
2024/01/08 08:47:50;;;;;;;;;;;17.80;62.80;;;;;;5036435;28;1154;-67
2024/01/08 08:50:16;;;;;;;;;;;17.80;62.80;;;;;;5041923;28;1140;-67
2024/01/08 08:52:43;;;;;;;;;;;17.90;62.80;;;;;;5038836;28;1973;-68
2024/01/08 08:55:09;;;;;;;;;;;17.80;62.70;;;;;;5041937;28;1351;-68
2024/01/08 08:57:36;;;;;;;;;;;17.90;62.70;;;;;;5035848;28;1227;-68
2024/01/08 09:00:01;;;;;;;;;;;17.90;62.70;;;;;;5040739;28;1014;-67
2024/01/08 09:02:27;;;;;;;;;;;17.90;62.60;;;;;;5041185;28;1125;-67
2024/01/08 09:04:53;;;;;;;;;;;17.90;62.60;;;;;;5039506;28;1673;-68
2024/01/08 09:07:22;;;;;;;;;;;18.00;62.50;;;;;;5038563;28;863;-67
2024/01/08 09:09:48;;;;;;;;;;;17.90;62.50;;;;;;5038401;28;984;-68
2024/01/08 09:12:14;;;;;;;;;;;18.00;62.50;;;;;;5071956;28;1914;-68
2024/01/08 09:14:41;;;;;;;;;;;18.00;62.40;;;;;;5024052;28;1278;-67
2024/01/08 09:17:06;;;;;;;;;;;18.00;62.30;;;;;;5041626;28;1758;-68
2024/01/08 09:19:32;;;;;;;;;;;18.00;62.30;;;;;;5038167;28;1433;-68
2024/01/08 09:21:57;;;;;;;;;;;18.00;62.30;;;;;;5036061;28;1611;-68
2024/01/08 09:24:23;;;;;;;;;;;18.00;62.20;;;;;;5035618;28;1555;-68
2024/01/08 09:26:48;;;;;;;;;;;18.00;62.20;;;;;;5037700;28;1617;-68
2024/01/08 09:29:14;;;;;;;;;;;18.00;62.20;;;;;;5041533;28;1264;-68
2024/01/08 09:31:39;;;;;;;;;;;18.00;62.20;;;;;;5037400;28;1656;-67
2024/01/08 09:34:05;;;;;;;;;;;18.00;62.20;;;;;;5056830;28;1947;-67
2024/01/08 09:36:31;;;;;;;;;;;18.00;62.20;;;;;;5039034;28;1642;-67
2024/01/08 09:38:56;;;;;;;;;;;18.00;62.20;;;;;;5067620;28;1515;-68
2024/01/08 09:41:22;;;;;;;;;;;18.00;62.20;;;;;;5038973;28;1651;-67
2024/01/08 09:43:47;;;;;;;;;;;18.00;62.10;;;;;;5069701;28;1413;-68
2024/01/08 09:46:22;;;;;;;;;;;18.00;62.10;;;;;;5056682;28;1563;-67
2024/01/08 09:48:48;;;;;;;;;;;18.00;62.10;;;;;;5071893;28;1114;-68
2024/01/08 09:51:13;;;;;;;;;;;18.10;62.10;;;;;;5041075;28;1440;-68
2024/01/08 09:53:38;;;;;;;;;;;18.00;62.10;;;;;;5039491;28;1894;-67
2024/01/08 09:56:04;;;;;;;;;;;18.00;62.00;;;;;;5038258;28;1429;-67
2024/01/08 09:58:30;;;;;;;;;;;18.10;62.10;;;;;;5043083;28;1519;-67
2024/01/08 10:00:55;;;;;;;;;;;18.10;62.10;;;;;;5037655;28;1586;-68
2024/01/08 10:03:20;;;;;;;;;;;18.10;62.10;;;;;;5039214;28;1466;-68
2024/01/08 10:05:46;;;;;;;;;;;18.00;62.00;;;;;;5037758;28;1352;-68
2024/01/08 10:08:11;;;;;;;;;;;18.10;62.10;;;;;;5038960;28;1353;-68
2024/01/08 10:10:37;;;;;;;;;;;18.10;62.00;;;;;;5035491;28;1484;-68
2024/01/08 10:13:03;;;;;;;;;;;18.10;62.10;;;;;;5035184;28;1910;-68
2024/01/08 10:15:28;;;;;;;;;;;18.10;62.00;;;;;;5035826;28;1648;-68
2024/01/08 10:18:00;;;;;;;;;;;18.10;62.00;;;;;;5024734;28;1570;-68
2024/01/08 10:20:25;;;;;;;;;;;18.10;62.00;;;;;;5046503;28;1488;-67
2024/01/08 10:23:03;;;;;;;;;;;18.10;61.90;;;;;;5037674;28;1438;-67
2024/01/08 10:25:29;;;;;;;;;;;18.10;62.00;;;;;;5038665;28;1359;-67
2024/01/08 10:27:55;;;;;;;;;;;18.10;62.00;;;;;;5036368;28;1674;-68
2024/01/08 10:30:20;;;;;;;;;;;18.10;62.00;;;;;;5044979;28;1408;-67
2024/01/08 10:32:46;;;;;;;;;;;18.10;62.00;;;;;;5045415;28;1966;-67
2024/01/08 10:35:12;;;;;;;;;;;18.10;62.00;;;;;;5062477;28;1518;-67
2024/01/08 10:37:38;;;;;;;;;;;18.10;62.00;;;;;;5036749;28;1347;-68
2024/01/08 10:40:04;;;;;;;;;;;18.10;62.00;;;;;;5037109;28;1303;-68
2024/01/08 10:42:29;;;;;;;;;;;18.10;61.90;;;;;;5044921;28;1766;-68
2024/01/08 10:44:55;;;;;;;;;;;18.10;61.90;;;;;;5038310;28;1148;-68
2024/01/08 10:47:22;;;;;;;;;;;18.10;61.90;;;;;;5037901;28;1629;-68
2024/01/08 10:49:49;;;;;;;;;;;18.10;61.90;;;;;;5071021;28;1680;-67
2024/01/08 10:52:18;;;;;;;;;;;18.10;61.90;;;;;;5069241;28;1965;-68
2024/01/08 10:54:45;;;;;;;;;;;18.10;61.90;;;;;;5036091;28;1446;-67
2024/01/08 10:57:12;;;;;;;;;;;18.10;61.90;;;;;;5041104;28;1500;-68
2024/01/08 10:59:37;;;;;;;;;;;18.10;61.90;;;;;;5058010;28;1373;-68
2024/01/08 11:02:03;;;;;;;;;;;18.10;61.90;;;;;;5070485;28;1481;-68
2024/01/08 11:04:30;;;;;;;;;;;18.10;61.90;;;;;;5026408;28;1697;-67
2024/01/08 11:06:56;;;;;;;;;;;18.10;61.90;;;;;;5042235;28;1279;-67
2024/01/08 11:09:25;;;;;;;;;;;18.10;61.60;;;;;;5040403;28;1569;-68
2024/01/08 11:11:51;;;;;;;;;;;18.10;58.90;;;;;;5037572;28;1925;-68
2024/01/08 11:14:16;;;;;;;;;;;18.10;59.50;;;;;;5069490;28;1959;-68
2024/01/08 11:16:42;;;;;;;;;;;18.10;59.50;;;;;;5040300;28;1461;-69
2024/01/08 11:19:27;;;;;;;;;;;18.10;59.50;;;;;;5043068;28;1212;-70
2024/01/08 11:21:56;;;;;;;;;;;18.10;59.70;;;;;;5039290;28;1503;-69
2024/01/08 11:24:22;;;;;;;;;;;18.10;59.90;;;;;;5042840;28;1332;-69
2024/01/08 11:26:49;;;;;;;;;;;18.10;60.20;;;;;;5044146;28;1285;-69
2024/01/08 11:29:17;;;;;;;;;;;18.10;60.30;;;;;;5043440;28;1327;-69
2024/01/08 11:31:46;;;;;;;;;;;18.10;60.20;;;;;;5039324;28;1945;-69
2024/01/08 11:34:30;;;;;;;;;;;18.10;60.20;;;;;;5040768;28;1956;-69
2024/01/08 11:37:15;;;;;;;;;;;18.10;60.30;;;;;;5039684;28;1333;-70
2024/01/08 11:39:41;;;;;;;;;;;18.10;60.40;;;;;;5039890;28;1272;-70
2024/01/08 11:42:07;;;;;;;;;;;18.10;60.40;;;;;;5067362;28;1372;-69
2024/01/08 11:44:32;;;;;;;;;;;18.10;60.40;;;;;;5039661;28;1346;-70
2024/01/08 11:46:58;;;;;;;;;;;18.10;60.40;;;;;;5058017;28;1401;-69
2024/01/08 11:49:23;;;;;;;;;;;18.10;60.40;;;;;;5039768;28;1961;-69
2024/01/08 11:51:49;;;;;;;;;;;18.10;60.40;;;;;;5038477;28;1369;-70
2024/01/08 11:54:15;;;;;;;;;;;18.10;60.40;;;;;;5039650;28;1878;-68
2024/01/08 11:56:41;;;;;;;;;;;18.10;60.40;;;;;;5039552;28;1315;-68
2024/01/08 11:59:06;;;;;;;;;;;18.10;60.50;;;;;;5041091;28;1464;-69
2024/01/08 12:01:31;;;;;;;;;;;18.10;60.50;;;;;;5044368;28;1537;-68
2024/01/08 12:03:58;;;;;;;;;;;18.10;60.60;;;;;;5041129;28;1527;-69
2024/01/08 12:06:24;;;;;;;;;;;18.10;60.50;;;;;;5041036;28;1303;-70
2024/01/08 12:08:53;;;;;;;;;;;18.10;60.60;;;;;;5039761;28;1446;-68
2024/01/08 12:11:18;;;;;;;;;;;18.10;60.60;;;;;;5043278;28;1366;-69
2024/01/08 12:13:44;;;;;;;;;;;18.10;61.40;;;;;;5041316;28;1914;-69
2024/01/08 12:16:09;;;;;;;;;;;18.10;60.60;;;;;;5057312;28;1534;-68
2024/01/08 12:18:35;;;;;;;;;;;18.10;60.60;;;;;;5044153;28;1308;-68
2024/01/08 12:21:00;;;;;;;;;;;18.10;60.60;;;;;;5042503;28;1625;-66
2024/01/08 12:23:26;;;;;;;;;;;18.10;60.60;;;;;;5041239;28;1543;-67
2024/01/08 12:25:52;;;;;;;;;;;18.00;60.50;;;;;;5045254;28;1940;-67
2024/01/08 12:28:17;;;;;;;;;;;18.00;60.50;;;;;;5041594;28;1810;-66
2024/01/08 12:30:43;;;;;;;;;;;18.00;60.50;;;;;;5038679;28;1631;-71
2024/01/08 12:33:09;;;;;;;;;;;18.00;60.60;;;;;;5041703;28;1906;-69
2024/01/08 12:35:37;;;;;;;;;;;18.00;60.60;;;;;;5070822;28;1995;-66
2024/01/08 12:38:03;;;;;;;;;;;18.00;60.70;;;;;;5038936;28;1388;-68
2024/01/08 12:40:29;;;;;;;;;;;18.00;60.70;;;;;;5033640;28;1742;-67
2024/01/08 12:42:54;;;;;;;;;;;18.00;60.70;;;;;;5036687;28;1300;-67
2024/01/08 12:45:20;;;;;;;;;;;18.00;60.70;;;;;;5069299;28;1554;-65
2024/01/08 12:47:45;;;;;;;;;;;18.00;60.60;;;;;;5038297;28;1300;-66
2024/01/08 12:50:11;;;;;;;;;;;18.00;60.70;;;;;;5038590;28;1326;-67
2024/01/08 12:52:36;;;;;;;;;;;18.00;60.60;;;;;;5038782;28;1906;-67
2024/01/08 12:55:03;;;;;;;;;;;17.90;60.60;;;;;;5055904;28;1299;-66
2024/01/08 12:57:30;;;;;;;;;;;17.90;60.60;;;;;;5046294;28;1186;-66
2024/01/08 12:59:56;;;;;;;;;;;17.90;60.60;;;;;;5038714;28;1648;-68
2024/01/08 13:02:22;;;;;;;;;;;17.90;60.60;;;;;;5070378;28;1541;-66
2024/01/08 13:04:49;;;;;;;;;;;17.90;60.60;;;;;;5039347;28;1382;-67
2024/01/08 13:07:15;;;;;;;;;;;17.90;60.60;;;;;;5039269;28;1446;-65
2024/01/08 13:09:40;;;;;;;;;;;17.90;60.60;;;;;;5040423;28;1293;-65
2024/01/08 13:12:07;;;;;;;;;;;17.90;60.70;;;;;;5040947;28;1914;-68
2024/01/08 13:14:32;;;;;;;;;;;17.90;60.70;;;;;;5042410;28;1532;-66
2024/01/08 13:16:58;;;;;;;;;;;17.90;60.70;;;;;;5041182;28;1381;-65
2024/01/08 13:19:23;;;;;;;;;;;17.90;60.70;;;;;;5038435;28;1405;-65
2024/01/08 13:21:49;;;;;;;;;;;17.90;60.60;;;;;;5039102;28;1655;-66
2024/01/08 13:24:15;;;;;;;;;;;17.90;60.70;;;;;;5038712;28;1445;-66
2024/01/08 13:26:40;;;;;;;;;;;17.90;60.60;;;;;;5036294;28;1324;-67
2024/01/08 13:29:06;;;;;;;;;;;17.90;60.50;;;;;;5037865;28;1342;-65
2024/01/08 13:31:32;;;;;;;;;;;17.90;60.50;;;;;;5037384;28;1199;-67
2024/01/08 13:33:57;;;;;;;;;;;17.90;60.40;;;;;;5044737;28;1894;-66
2024/01/08 13:36:23;;;;;;;;;;;17.90;60.30;;;;;;5034917;28;1540;-66
2024/01/08 13:38:48;;;;;;;;;;;17.90;60.30;;;;;;5038261;28;1371;-65
2024/01/08 13:41:14;;;;;;;;;;;18.00;60.40;;;;;;5046328;28;1315;-66
2024/01/08 13:43:40;;;;;;;;;;;17.90;60.30;;;;;;5038996;28;1346;-66
2024/01/08 13:46:08;;;;;;;;;;;17.90;60.20;;;;;;5033689;28;1556;-67
2024/01/08 13:48:39;;;;;;;;;;;18.00;60.20;;;;;;5037588;28;1511;-66
2024/01/08 13:51:05;;;;;;;;;;;18.00;60.10;;;;;;5037581;28;1359;-66
2024/01/08 13:53:30;;;;;;;;;;;18.00;60.10;;;;;;5038161;28;1894;-66
2024/01/08 13:55:56;;;;;;;;;;;18.00;60.10;;;;;;5037529;28;1262;-65
2024/01/08 13:58:21;;;;;;;;;;;18.00;60.10;;;;;;5039202;28;1331;-67
2024/01/08 14:00:47;;;;;;;;;;;18.00;60.10;;;;;;5040659;28;1262;-67
2024/01/08 14:03:13;;;;;;;;;;;18.00;60.10;;;;;;5051820;28;2161;-66
2024/01/08 14:05:38;;;;;;;;;;;18.00;60.00;;;;;;5039365;28;1277;-67
2024/01/08 14:08:04;;;;;;;;;;;18.00;60.00;;;;;;5036951;28;1216;-66
2024/01/08 14:10:30;;;;;;;;;;;18.00;59.90;;;;;;5036638;28;1384;-66
2024/01/08 14:12:55;;;;;;;;;;;18.00;59.90;;;;;;5036617;28;1948;-67
2024/01/08 14:15:21;;;;;;;;;;;18.00;59.80;;;;;;5036965;28;1242;-66
2024/01/08 14:17:46;;;;;;;;;;;18.00;59.80;;;;;;5035613;28;1740;-67
2024/01/08 14:20:12;;;;;;;;;;;18.00;59.80;;;;;;5037617;28;1317;-66
2024/01/08 14:22:38;;;;;;;;;;;18.00;59.70;;;;;;5035276;28;1459;-66